sensor_id;sensor_type;location;lat;lon;timestamp;P1;durP1;ratioP1;P2;durP2;ratioP2
51718;SDS011;37795;53.236;5.704;2022-12-05T10:53:45;5.68;;;2.92;;
51718;SDS011;37795;53.236;5.704;2022-12-05T11:09:57;3.33;;;2.30;;
51718;SDS011;37795;53.236;5.704;2022-12-05T11:12:29;3.35;;;2.10;;
51718;SDS011;37795;53.236;5.704;2022-12-05T11:15:04;3.83;;;2.30;;
51718;SDS011;37795;53.236;5.704;2022-12-05T11:17:52;2.60;;;2.17;;
51718;SDS011;37795;53.236;5.704;2022-12-05T11:22:47;3.13;;;2.60;;
51718;SDS011;37795;53.236;5.704;2022-12-05T11:54:46;5.90;;;4.00;;
51718;SDS011;37795;53.236;5.704;2022-12-05T12:00:32;6.72;;;4.35;;
51718;SDS011;37795;53.236;5.704;2022-12-05T12:08:29;3.83;;;3.22;;
51718;SDS011;37795;53.236;5.704;2022-12-05T12:13:40;4.18;;;3.28;;
51718;SDS011;37795;53.236;5.704;2022-12-05T12:19:02;3.58;;;2.70;;
51718;SDS011;37795;53.236;5.704;2022-12-05T12:30:20;5.30;;;3.33;;
51718;SDS011;37795;53.236;5.704;2022-12-05T12:35:27;3.55;;;2.80;;
51718;SDS011;37795;53.236;5.704;2022-12-05T12:40:33;3.03;;;2.73;;
51718;SDS011;37795;53.236;5.704;2022-12-05T12:43:29;3.35;;;3.05;;
51718;SDS011;37795;53.236;5.704;2022-12-05T12:52:19;4.00;;;3.20;;
51718;SDS011;37795;53.236;5.704;2022-12-05T12:57:36;3.73;;;2.93;;
51718;SDS011;37795;53.236;5.704;2022-12-05T13:05:47;4.63;;;3.17;;
51718;SDS011;37795;53.236;5.704;2022-12-05T13:08:34;3.28;;;2.63;;
51718;SDS011;37795;53.236;5.704;2022-12-05T13:11:09;6.25;;;3.00;;
51718;SDS011;37795;53.236;5.704;2022-12-05T13:13:48;3.60;;;2.53;;
51718;SDS011;37795;53.236;5.704;2022-12-05T13:16:27;3.85;;;2.75;;
51718;SDS011;37795;53.236;5.704;2022-12-05T13:18:56;4.50;;;3.03;;
51718;SDS011;37795;53.236;5.704;2022-12-05T13:21:23;4.27;;;2.67;;
51718;SDS011;37795;53.236;5.704;2022-12-05T13:23:50;2.80;;;2.27;;
51718;SDS011;37795;53.236;5.704;2022-12-05T13:26:20;2.72;;;2.33;;
51718;SDS011;37795;53.236;5.704;2022-12-05T13:28:57;3.97;;;2.63;;
51718;SDS011;37795;53.236;5.704;2022-12-05T13:31:41;2.97;;;2.42;;
51718;SDS011;37795;53.236;5.704;2022-12-05T13:34:54;3.60;;;2.40;;
51718;SDS011;37795;53.236;5.704;2022-12-05T13:36:56;4.03;;;2.30;;
51718;SDS011;37795;53.236;5.704;2022-12-05T13:39:41;3.80;;;2.88;;
51718;SDS011;37795;53.236;5.704;2022-12-05T13:42:34;2.55;;;2.17;;
51718;SDS011;37795;53.236;5.704;2022-12-05T13:45:06;5.63;;;2.65;;
51718;SDS011;37795;53.236;5.704;2022-12-05T13:52:52;3.38;;;1.92;;
51718;SDS011;37795;53.236;5.704;2022-12-05T13:55:28;2.67;;;2.07;;
51718;SDS011;37795;53.236;5.704;2022-12-05T13:58:58;5.53;;;2.65;;
51718;SDS011;37795;53.236;5.704;2022-12-05T14:01:42;3.33;;;2.40;;
51718;SDS011;37795;53.236;5.704;2022-12-05T14:09:03;3.13;;;2.60;;
51718;SDS011;37795;53.236;5.704;2022-12-05T14:11:29;2.05;;;1.95;;
51718;SDS011;37795;53.236;5.704;2022-12-05T14:13:55;3.17;;;2.27;;
51718;SDS011;37795;53.236;5.704;2022-12-05T14:18:51;2.60;;;2.40;;
51718;SDS011;37795;53.236;5.704;2022-12-05T14:21:48;4.03;;;2.22;;
51718;SDS011;37795;53.236;5.704;2022-12-05T14:24:35;4.05;;;2.38;;
51718;SDS011;37795;53.236;5.704;2022-12-05T14:27:22;3.40;;;2.70;;
51718;SDS011;37795;53.236;5.704;2022-12-05T14:32:46;3.47;;;2.70;;
51718;SDS011;37795;53.236;5.704;2022-12-05T14:35:20;4.70;;;2.85;;
51718;SDS011;37795;53.236;5.704;2022-12-05T14:37:56;3.23;;;2.53;;
51718;SDS011;37795;53.236;5.704;2022-12-05T14:40:29;4.50;;;3.00;;
51718;SDS011;37795;53.236;5.704;2022-12-05T14:43:01;4.05;;;2.58;;
51718;SDS011;37795;53.236;5.704;2022-12-05T14:45:36;4.07;;;2.30;;
51718;SDS011;37795;53.236;5.704;2022-12-05T14:50:40;3.05;;;2.42;;
51718;SDS011;37795;53.236;5.704;2022-12-05T15:01:13;2.85;;;2.25;;
51718;SDS011;37795;53.236;5.704;2022-12-05T15:04:05;2.55;;;2.22;;
51718;SDS011;37795;53.236;5.704;2022-12-05T15:06:43;3.92;;;1.98;;
51718;SDS011;37795;53.236;5.704;2022-12-05T15:12:21;2.00;;;1.50;;
51718;SDS011;37795;53.236;5.704;2022-12-05T15:17:48;2.00;;;1.60;;
51718;SDS011;37795;53.236;5.704;2022-12-05T15:34:15;1.80;;;1.40;;
51718;SDS011;37795;53.236;5.704;2022-12-05T15:42:36;2.33;;;1.48;;
51718;SDS011;37795;53.236;5.704;2022-12-05T15:47:42;3.05;;;1.75;;
51718;SDS011;37795;53.236;5.704;2022-12-05T15:50:20;3.15;;;2.15;;
51718;SDS011;37795;53.236;5.704;2022-12-05T15:55:45;1.70;;;1.40;;
51718;SDS011;37795;53.236;5.704;2022-12-05T16:00:49;6.32;;;2.35;;
51718;SDS011;37795;53.236;5.704;2022-12-05T16:03:33;3.83;;;1.63;;
51718;SDS011;37795;53.236;5.704;2022-12-05T16:08:48;1.35;;;1.20;;
51718;SDS011;37795;53.236;5.704;2022-12-05T16:11:14;2.10;;;1.77;;
51718;SDS011;37795;53.236;5.704;2022-12-05T16:13:46;2.58;;;1.90;;
51718;SDS011;37795;53.236;5.704;2022-12-05T16:16:16;6.97;;;1.75;;
51718;SDS011;37795;53.236;5.704;2022-12-05T16:18:48;2.38;;;2.03;;
51718;SDS011;37795;53.236;5.704;2022-12-05T16:24:26;3.13;;;2.20;;
51718;SDS011;37795;53.236;5.704;2022-12-05T16:27:13;2.35;;;1.52;;
51718;SDS011;37795;53.236;5.704;2022-12-05T16:29:41;4.00;;;2.10;;
51718;SDS011;37795;53.236;5.704;2022-12-05T16:32:19;2.55;;;2.00;;
51718;SDS011;37795;53.236;5.704;2022-12-05T16:34:47;2.13;;;1.42;;
51718;SDS011;37795;53.236;5.704;2022-12-05T16:37:31;3.53;;;2.10;;
51718;SDS011;37795;53.236;5.704;2022-12-05T16:39:57;3.78;;;1.50;;
51718;SDS011;37795;53.236;5.704;2022-12-05T16:42:27;3.17;;;1.77;;
51718;SDS011;37795;53.236;5.704;2022-12-05T16:44:57;7.65;;;2.60;;
51718;SDS011;37795;53.236;5.704;2022-12-05T16:48:15;3.28;;;1.88;;
51718;SDS011;37795;53.236;5.704;2022-12-05T16:53:09;1.48;;;1.38;;
51718;SDS011;37795;53.236;5.704;2022-12-05T16:55:40;2.50;;;2.25;;
51718;SDS011;37795;53.236;5.704;2022-12-05T16:58:16;5.55;;;2.03;;
51718;SDS011;37795;53.236;5.704;2022-12-05T17:00:48;3.42;;;2.10;;
51718;SDS011;37795;53.236;5.704;2022-12-05T17:03:14;4.60;;;2.20;;
51718;SDS011;37795;53.236;5.704;2022-12-05T17:05:41;4.03;;;2.20;;
51718;SDS011;37795;53.236;5.704;2022-12-05T17:08:07;2.23;;;1.80;;
51718;SDS011;37795;53.236;5.704;2022-12-05T17:10:33;2.60;;;1.92;;
51718;SDS011;37795;53.236;5.704;2022-12-05T17:12:58;3.90;;;2.30;;
51718;SDS011;37795;53.236;5.704;2022-12-05T17:15:25;2.58;;;1.77;;
51718;SDS011;37795;53.236;5.704;2022-12-05T17:17:51;2.60;;;1.75;;
51718;SDS011;37795;53.236;5.704;2022-12-05T17:20:18;3.53;;;1.90;;
51718;SDS011;37795;53.236;5.704;2022-12-05T17:22:43;3.60;;;2.10;;
51718;SDS011;37795;53.236;5.704;2022-12-05T17:25:16;4.88;;;1.90;;
51718;SDS011;37795;53.236;5.704;2022-12-05T17:27:47;3.05;;;1.90;;
51718;SDS011;37795;53.236;5.704;2022-12-05T17:30:12;2.90;;;1.97;;
51718;SDS011;37795;53.236;5.704;2022-12-05T17:32:39;3.75;;;2.10;;
51718;SDS011;37795;53.236;5.704;2022-12-05T17:35:11;3.08;;;1.90;;
51718;SDS011;37795;53.236;5.704;2022-12-05T17:37:38;3.78;;;1.90;;
51718;SDS011;37795;53.236;5.704;2022-12-05T17:40:05;4.82;;;1.80;;
51718;SDS011;37795;53.236;5.704;2022-12-05T17:42:38;2.78;;;2.00;;
51718;SDS011;37795;53.236;5.704;2022-12-05T17:45:04;2.17;;;1.80;;
51718;SDS011;37795;53.236;5.704;2022-12-05T17:47:34;3.13;;;2.05;;
51718;SDS011;37795;53.236;5.704;2022-12-05T17:50:00;7.50;;;2.43;;
51718;SDS011;37795;53.236;5.704;2022-12-05T17:52:27;3.72;;;2.50;;
51718;SDS011;37795;53.236;5.704;2022-12-05T17:54:53;4.18;;;2.13;;
51718;SDS011;37795;53.236;5.704;2022-12-05T17:57:18;3.13;;;2.17;;
51718;SDS011;37795;53.236;5.704;2022-12-05T17:59:44;3.60;;;2.33;;
51718;SDS011;37795;53.236;5.704;2022-12-05T18:02:10;2.38;;;1.83;;
51718;SDS011;37795;53.236;5.704;2022-12-05T18:04:36;2.72;;;1.80;;
51718;SDS011;37795;53.236;5.704;2022-12-05T18:07:02;3.45;;;2.35;;
51718;SDS011;37795;53.236;5.704;2022-12-05T18:09:28;4.50;;;2.57;;
51718;SDS011;37795;53.236;5.704;2022-12-05T18:11:55;4.50;;;2.33;;
51718;SDS011;37795;53.236;5.704;2022-12-05T18:14:21;8.27;;;2.20;;
51718;SDS011;37795;53.236;5.704;2022-12-05T18:16:47;4.03;;;1.90;;
51718;SDS011;37795;53.236;5.704;2022-12-05T18:19:13;3.55;;;2.15;;
51718;SDS011;37795;53.236;5.704;2022-12-05T18:21:38;2.73;;;1.90;;
51718;SDS011;37795;53.236;5.704;2022-12-05T18:24:04;7.00;;;2.43;;
51718;SDS011;37795;53.236;5.704;2022-12-05T18:26:30;3.65;;;2.25;;
51718;SDS011;37795;53.236;5.704;2022-12-05T18:28:55;4.65;;;2.50;;
51718;SDS011;37795;53.236;5.704;2022-12-05T18:31:23;2.60;;;1.85;;
51718;SDS011;37795;53.236;5.704;2022-12-05T18:33:49;5.43;;;2.22;;
51718;SDS011;37795;53.236;5.704;2022-12-05T18:36:19;2.53;;;1.80;;
51718;SDS011;37795;53.236;5.704;2022-12-05T18:38:49;3.27;;;2.10;;
51718;SDS011;37795;53.236;5.704;2022-12-05T18:41:16;4.30;;;2.05;;
51718;SDS011;37795;53.236;5.704;2022-12-05T18:43:42;3.20;;;2.28;;
51718;SDS011;37795;53.236;5.704;2022-12-05T18:46:08;3.92;;;2.05;;
51718;SDS011;37795;53.236;5.704;2022-12-05T18:48:34;3.88;;;2.17;;
51718;SDS011;37795;53.236;5.704;2022-12-05T18:51:10;3.78;;;1.98;;
51718;SDS011;37795;53.236;5.704;2022-12-05T18:59:01;3.60;;;2.28;;
51718;SDS011;37795;53.236;5.704;2022-12-05T19:01:33;4.78;;;2.58;;
51718;SDS011;37795;53.236;5.704;2022-12-05T19:04:00;4.55;;;1.98;;
51718;SDS011;37795;53.236;5.704;2022-12-05T19:06:28;3.20;;;1.70;;
51718;SDS011;37795;53.236;5.704;2022-12-05T19:08:58;3.92;;;2.00;;
51718;SDS011;37795;53.236;5.704;2022-12-05T19:11:26;3.40;;;1.88;;
51718;SDS011;37795;53.236;5.704;2022-12-05T19:13:56;2.90;;;1.77;;
51718;SDS011;37795;53.236;5.704;2022-12-05T19:16:24;3.38;;;1.80;;
51718;SDS011;37795;53.236;5.704;2022-12-05T19:18:54;5.32;;;1.48;;
51718;SDS011;37795;53.236;5.704;2022-12-05T19:21:21;3.95;;;1.70;;
51718;SDS011;37795;53.236;5.704;2022-12-05T19:23:48;4.97;;;1.85;;
51718;SDS011;37795;53.236;5.704;2022-12-05T19:26:13;3.72;;;1.80;;
51718;SDS011;37795;53.236;5.704;2022-12-05T19:28:39;2.33;;;1.60;;
51718;SDS011;37795;53.236;5.704;2022-12-05T19:31:06;2.75;;;1.67;;
51718;SDS011;37795;53.236;5.704;2022-12-05T19:33:37;1.85;;;1.40;;
51718;SDS011;37795;53.236;5.704;2022-12-05T19:36:06;5.13;;;2.00;;
51718;SDS011;37795;53.236;5.704;2022-12-05T19:38:37;2.28;;;1.70;;
51718;SDS011;37795;53.236;5.704;2022-12-05T19:41:05;3.13;;;1.75;;
51718;SDS011;37795;53.236;5.704;2022-12-05T19:43:32;2.10;;;1.63;;
51718;SDS011;37795;53.236;5.704;2022-12-05T19:46:02;4.50;;;2.08;;
51718;SDS011;37795;53.236;5.704;2022-12-05T19:48:34;2.43;;;1.80;;
51718;SDS011;37795;53.236;5.704;2022-12-05T19:51:00;2.70;;;1.70;;
51718;SDS011;37795;53.236;5.704;2022-12-05T19:53:30;1.98;;;1.55;;
51718;SDS011;37795;53.236;5.704;2022-12-05T19:56:01;2.33;;;1.45;;
51718;SDS011;37795;53.236;5.704;2022-12-05T19:58:37;2.30;;;1.50;;
51718;SDS011;37795;53.236;5.704;2022-12-05T20:01:07;2.35;;;1.77;;
51718;SDS011;37795;53.236;5.704;2022-12-05T20:03:34;3.65;;;2.13;;
51718;SDS011;37795;53.236;5.704;2022-12-05T20:06:00;2.67;;;1.60;;
51718;SDS011;37795;53.236;5.704;2022-12-05T20:08:26;3.83;;;1.90;;
51718;SDS011;37795;53.236;5.704;2022-12-05T20:10:51;2.80;;;2.03;;
51718;SDS011;37795;53.236;5.704;2022-12-05T20:13:18;2.70;;;1.80;;
51718;SDS011;37795;53.236;5.704;2022-12-05T20:15:44;3.38;;;1.70;;
51718;SDS011;37795;53.236;5.704;2022-12-05T20:18:11;3.83;;;2.25;;
51718;SDS011;37795;53.236;5.704;2022-12-05T20:20:38;2.58;;;1.83;;
51718;SDS011;37795;53.236;5.704;2022-12-05T20:23:04;2.07;;;1.40;;
51718;SDS011;37795;53.236;5.704;2022-12-05T20:25:29;2.33;;;1.48;;
51718;SDS011;37795;53.236;5.704;2022-12-05T20:27:58;2.88;;;1.85;;
51718;SDS011;37795;53.236;5.704;2022-12-05T20:30:24;2.03;;;1.40;;
51718;SDS011;37795;53.236;5.704;2022-12-05T20:32:50;3.30;;;1.75;;
51718;SDS011;37795;53.236;5.704;2022-12-05T20:35:15;2.53;;;1.60;;
51718;SDS011;37795;53.236;5.704;2022-12-05T20:37:41;4.57;;;1.77;;
51718;SDS011;37795;53.236;5.704;2022-12-05T20:40:07;5.10;;;2.22;;
51718;SDS011;37795;53.236;5.704;2022-12-05T20:42:33;3.50;;;1.80;;
51718;SDS011;37795;53.236;5.704;2022-12-05T20:44:58;2.30;;;1.93;;
51718;SDS011;37795;53.236;5.704;2022-12-05T20:47:24;5.00;;;2.08;;
51718;SDS011;37795;53.236;5.704;2022-12-05T20:49:49;4.75;;;2.30;;
51718;SDS011;37795;53.236;5.704;2022-12-05T20:52:15;3.78;;;2.17;;
51718;SDS011;37795;53.236;5.704;2022-12-05T20:54:41;3.43;;;1.90;;
51718;SDS011;37795;53.236;5.704;2022-12-05T20:57:06;2.40;;;1.97;;
51718;SDS011;37795;53.236;5.704;2022-12-05T20:59:32;1.30;;;1.07;;
51718;SDS011;37795;53.236;5.704;2022-12-05T21:01:58;2.65;;;1.50;;
51718;SDS011;37795;53.236;5.704;2022-12-05T21:04:23;3.50;;;2.10;;
51718;SDS011;37795;53.236;5.704;2022-12-05T21:06:49;2.00;;;1.55;;
51718;SDS011;37795;53.236;5.704;2022-12-05T21:09:15;2.83;;;1.67;;
51718;SDS011;37795;53.236;5.704;2022-12-05T21:11:50;2.97;;;1.60;;
51718;SDS011;37795;53.236;5.704;2022-12-05T21:14:16;2.80;;;1.50;;
51718;SDS011;37795;53.236;5.704;2022-12-05T21:16:41;5.20;;;2.73;;
51718;SDS011;37795;53.236;5.704;2022-12-05T21:19:07;2.57;;;1.70;;
51718;SDS011;37795;53.236;5.704;2022-12-05T21:21:33;2.20;;;1.75;;
51718;SDS011;37795;53.236;5.704;2022-12-05T21:24:00;3.43;;;1.63;;
51718;SDS011;37795;53.236;5.704;2022-12-05T21:26:28;1.98;;;1.42;;
51718;SDS011;37795;53.236;5.704;2022-12-05T21:28:55;1.50;;;1.30;;
51718;SDS011;37795;53.236;5.704;2022-12-05T21:31:26;1.25;;;0.95;;
51718;SDS011;37795;53.236;5.704;2022-12-05T21:34:00;1.47;;;1.00;;
51718;SDS011;37795;53.236;5.704;2022-12-05T21:36:28;2.38;;;0.98;;
51718;SDS011;37795;53.236;5.704;2022-12-05T21:38:55;1.48;;;0.98;;
51718;SDS011;37795;53.236;5.704;2022-12-05T21:41:21;2.60;;;1.02;;
51718;SDS011;37795;53.236;5.704;2022-12-05T21:43:48;1.15;;;1.00;;
51718;SDS011;37795;53.236;5.704;2022-12-05T21:46:13;2.47;;;1.13;;
51718;SDS011;37795;53.236;5.704;2022-12-05T21:48:39;2.60;;;1.30;;
51718;SDS011;37795;53.236;5.704;2022-12-05T21:51:05;3.00;;;1.43;;
51718;SDS011;37795;53.236;5.704;2022-12-05T21:59:00;2.00;;;1.30;;
51718;SDS011;37795;53.236;5.704;2022-12-05T22:01:26;1.45;;;1.17;;
51718;SDS011;37795;53.236;5.704;2022-12-05T22:03:53;1.13;;;0.98;;
51718;SDS011;37795;53.236;5.704;2022-12-05T22:06:21;1.65;;;1.35;;
51718;SDS011;37795;53.236;5.704;2022-12-05T22:08:47;1.73;;;1.38;;
51718;SDS011;37795;53.236;5.704;2022-12-05T22:11:14;1.30;;;1.20;;
51718;SDS011;37795;53.236;5.704;2022-12-05T22:13:41;1.75;;;1.20;;
51718;SDS011;37795;53.236;5.704;2022-12-05T22:16:08;2.22;;;1.30;;
51718;SDS011;37795;53.236;5.704;2022-12-05T22:18:35;2.77;;;1.40;;
